Time;durP1;ratioP1;P1;durP2;ratioP2;P2;SDS_P1;SDS_P2;PMS_P1;PMS_P2;Temp;Humidity;BMP_temperature;BMP_pressure;BME280_temperature;BME280_humidity;BME280_pressure;Samples;Min_cycle;Max_cycle;Signal;HPM_P1;HPM_P2
2023/10/21 00:02:02;;;;;;;3.90;1.55;;;;;;;;;;4919541;29;20118;-78
2023/10/21 00:04:28;;;;;;;4.55;1.30;;;;;;;;;;4922948;29;20690;-78
2023/10/21 00:06:54;;;;;;;2.60;1.30;;;;;;;;;;4905120;29;20039;-78
2023/10/21 00:09:19;;;;;;;2.90;1.20;;;;;;;;;;4912356;29;20036;-78
2023/10/21 00:11:44;;;;;;;5.75;1.30;;;;;;;;;;4922540;29;20028;-80
2023/10/21 00:14:10;;;;;;;2.67;1.00;;;;;;;;;;4924067;29;20015;-79
2023/10/21 00:16:35;;;;;;;1.25;0.80;;;;;;;;;;4922535;29;20032;-79
2023/10/21 00:19:00;;;;;;;2.50;0.80;;;;;;;;;;4921604;29;20019;-78
2023/10/21 00:21:26;;;;;;;2.35;0.85;;;;;;;;;;4900536;29;20429;-77
2023/10/21 00:23:51;;;;;;;1.15;0.70;;;;;;;;;;4913949;29;20507;-79
2023/10/21 00:26:16;;;;;;;0.60;0.60;;;;;;;;;;4923422;29;20051;-82
2023/10/21 00:28:42;;;;;;;1.50;0.60;;;;;;;;;;4917854;29;20035;-78
2023/10/21 00:31:07;;;;;;;1.23;0.60;;;;;;;;;;4913192;29;20496;-78
2023/10/21 00:33:33;;;;;;;1.60;0.70;;;;;;;;;;4905302;29;20748;-77
2023/10/21 00:35:59;;;;;;;0.77;0.70;;;;;;;;;;4906809;29;20036;-75
2023/10/21 00:38:25;;;;;;;0.60;0.60;;;;;;;;;;4901251;29;20119;-77
2023/10/21 00:40:50;;;;;;;2.25;0.95;;;;;;;;;;4895770;29;20028;-77
2023/10/21 00:43:31;;;;;;;2.10;0.80;;;;;;;;;;4912296;29;20028;-76
2023/10/21 00:45:56;;;;;;;2.33;0.90;;;;;;;;;;4920875;29;20098;-77
2023/10/21 00:48:21;;;;;;;2.33;0.80;;;;;;;;;;4927001;29;20020;-77
2023/10/21 00:50:47;;;;;;;1.50;1.00;;;;;;;;;;4916200;29;20059;-75
2023/10/21 00:53:12;;;;;;;2.72;0.80;;;;;;;;;;4923351;29;20124;-78
2023/10/21 00:55:39;;;;;;;2.05;0.80;;;;;;;;;;4914963;29;20054;-78
2023/10/21 00:58:05;;;;;;;2.35;0.90;;;;;;;;;;4900129;29;20347;-79
2023/10/21 01:00:30;;;;;;;3.00;0.90;;;;;;;;;;4920257;29;20035;-79
2023/10/21 01:02:55;;;;;;;2.70;0.90;;;;;;;;;;4917609;29;20028;-80
2023/10/21 01:05:21;;;;;;;1.95;0.80;;;;;;;;;;4923395;29;20047;-80
2023/10/21 01:07:46;;;;;;;2.53;0.95;;;;;;;;;;4922072;29;20087;-79
2023/10/21 01:10:12;;;;;;;3.22;1.00;;;;;;;;;;4926544;29;20035;-81
2023/10/21 01:12:37;;;;;;;2.75;0.90;;;;;;;;;;4917284;29;20055;-80
2023/10/21 01:15:03;;;;;;;1.73;0.80;;;;;;;;;;4920566;29;20114;-82
2023/10/21 01:17:28;;;;;;;2.65;0.95;;;;;;;;;;4921993;29;20051;-81
2023/10/21 01:19:57;;;;;;;2.55;1.02;;;;;;;;;;4917758;29;20036;-80
2023/10/21 01:22:23;;;;;;;2.22;0.88;;;;;;;;;;4932432;29;20023;-79
2023/10/21 01:24:48;;;;;;;1.42;0.90;;;;;;;;;;4905090;29;21570;-80
2023/10/21 01:27:14;;;;;;;3.40;1.23;;;;;;;;;;4907802;29;20323;-79
2023/10/21 01:29:39;;;;;;;4.00;0.95;;;;;;;;;;4898930;29;20659;-80
2023/10/21 01:32:05;;;;;;;1.60;0.80;;;;;;;;;;4904190;29;20098;-79
2023/10/21 01:34:31;;;;;;;2.83;1.02;;;;;;;;;;4893176;29;20095;-80
2023/10/21 01:36:56;;;;;;;2.83;1.00;;;;;;;;;;4904784;29;20384;-80
2023/10/21 01:39:22;;;;;;;3.65;1.10;;;;;;;;;;4910688;29;20032;-79
2023/10/21 01:41:47;;;;;;;2.83;0.90;;;;;;;;;;4908808;29;20032;-80
2023/10/21 01:44:13;;;;;;;2.90;0.90;;;;;;;;;;4912721;29;20231;-79
2023/10/21 01:46:38;;;;;;;2.75;1.08;;;;;;;;;;4910630;29;20574;-79
2023/10/21 01:49:04;;;;;;;2.90;0.95;;;;;;;;;;4914024;29;20111;-79
2023/10/21 01:51:29;;;;;;;5.38;1.00;;;;;;;;;;4907441;29;20151;-80
2023/10/21 01:53:55;;;;;;;1.67;0.85;;;;;;;;;;4914192;29;20175;-79
2023/10/21 01:56:20;;;;;;;6.35;0.95;;;;;;;;;;4914342;29;20031;-81
2023/10/21 01:58:46;;;;;;;4.07;1.17;;;;;;;;;;4914033;29;20047;-81
2023/10/21 02:01:11;;;;;;;4.25;1.02;;;;;;;;;;4910309;29;20023;-79
2023/10/21 02:03:41;;;;;;;4.38;1.33;;;;;;;;;;4903640;29;20511;-79
2023/10/21 02:06:07;;;;;;;3.38;0.95;;;;;;;;;;4909650;29;20026;-80
2023/10/21 02:08:33;;;;;;;6.30;1.17;;;;;;;;;;4907208;29;20044;-79
2023/10/21 02:10:58;;;;;;;2.95;0.93;;;;;;;;;;4905607;29;20109;-78
2023/10/21 02:13:24;;;;;;;5.25;1.13;;;;;;;;;;4914265;29;20027;-79
2023/10/21 02:15:52;;;;;;;7.47;2.17;;;;;;;;;;4915159;29;20059;-78
2023/10/21 02:18:18;;;;;;;6.40;1.10;;;;;;;;;;4912621;29;21913;-79
2023/10/21 02:20:43;;;;;;;3.50;1.08;;;;;;;;;;4905846;29;20034;-77
2023/10/21 02:23:09;;;;;;;5.60;1.20;;;;;;;;;;4899428;29;20484;-78
2023/10/21 02:25:34;;;;;;;7.15;1.77;;;;;;;;;;4906296;29;20038;-77
2023/10/21 02:28:01;;;;;;;5.82;1.50;;;;;;;;;;4915461;29;20050;-77
2023/10/21 02:30:26;;;;;;;4.07;1.00;;;;;;;;;;4916694;29;20746;-78
2023/10/21 02:32:52;;;;;;;4.60;1.42;;;;;;;;;;4904750;29;20107;-76
2023/10/21 02:35:17;;;;;;;6.75;1.30;;;;;;;;;;4908932;29;20028;-76
2023/10/21 02:37:43;;;;;;;3.80;1.00;;;;;;;;;;4908809;29;20031;-76
2023/10/21 02:40:09;;;;;;;4.97;1.20;;;;;;;;;;4900966;29;20059;-76
2023/10/21 02:42:35;;;;;;;4.95;1.30;;;;;;;;;;4909398;29;20121;-76
2023/10/21 02:45:08;;;;;;;4.95;1.02;;;;;;;;;;4905134;29;20636;-77
2023/10/21 02:47:34;;;;;;;6.38;1.00;;;;;;;;;;4907146;29;20048;-76
2023/10/21 02:49:59;;;;;;;5.30;1.20;;;;;;;;;;4912350;29;20028;-76
2023/10/21 02:52:24;;;;;;;7.50;1.35;;;;;;;;;;4917565;29;20051;-76
2023/10/21 02:54:50;;;;;;;6.20;1.23;;;;;;;;;;4907198;29;20113;-77
2023/10/21 02:57:15;;;;;;;5.68;1.38;;;;;;;;;;4909945;29;20118;-76
2023/10/21 02:59:40;;;;;;;6.88;1.30;;;;;;;;;;4907471;29;20107;-75
2023/10/21 03:02:06;;;;;;;8.20;1.40;;;;;;;;;;4909843;29;20032;-77
2023/10/21 03:04:32;;;;;;;8.18;1.23;;;;;;;;;;4909170;29;20032;-77
2023/10/21 03:06:57;;;;;;;6.18;1.20;;;;;;;;;;4909903;29;20086;-75
2023/10/21 03:09:23;;;;;;;5.10;1.20;;;;;;;;;;4923494;29;20035;-76
2023/10/21 03:11:48;;;;;;;8.18;1.45;;;;;;;;;;4918576;29;20019;-77
2023/10/21 03:14:13;;;;;;;9.38;1.30;;;;;;;;;;4924714;29;20095;-79
2023/10/21 03:16:39;;;;;;;7.32;1.42;;;;;;;;;;4907708;29;20039;-77
2023/10/21 03:19:04;;;;;;;4.88;1.30;;;;;;;;;;4912384;29;20111;-78
2023/10/21 03:21:30;;;;;;;7.75;1.52;;;;;;;;;;4914492;29;20063;-76
2023/10/21 03:23:55;;;;;;;5.35;1.30;;;;;;;;;;4911363;29;20079;-76
2023/10/21 03:26:21;;;;;;;8.73;1.42;;;;;;;;;;4908778;29;20031;-76
2023/10/21 03:28:46;;;;;;;10.50;1.40;;;;;;;;;;4912176;29;20397;-77
2023/10/21 03:31:12;;;;;;;6.88;1.30;;;;;;;;;;4900525;29;20052;-77
2023/10/21 03:33:37;;;;;;;5.53;1.30;;;;;;;;;;4905500;29;20123;-78
2023/10/21 03:36:05;;;;;;;6.13;1.25;;;;;;;;;;4903379;29;20032;-78
2023/10/21 03:38:31;;;;;;;7.78;1.35;;;;;;;;;;4908230;29;20059;-78
2023/10/21 03:41:00;;;;;;;6.47;1.33;;;;;;;;;;4906476;29;20123;-76
2023/10/21 03:43:26;;;;;;;4.68;1.10;;;;;;;;;;4913319;29;20663;-78
2023/10/21 03:45:52;;;;;;;8.27;1.33;;;;;;;;;;4909422;29;20043;-78
2023/10/21 03:48:18;;;;;;;7.20;1.60;;;;;;;;;;4905751;29;20677;-77
2023/10/21 03:50:43;;;;;;;9.00;1.50;;;;;;;;;;4906517;29;20115;-78
2023/10/21 03:53:09;;;;;;;7.53;1.25;;;;;;;;;;4914176;29;20059;-77
2023/10/21 03:55:34;;;;;;;6.32;1.55;;;;;;;;;;4919826;29;20107;-76
2023/10/21 03:57:59;;;;;;;6.85;1.30;;;;;;;;;;4907552;29;20730;-77
2023/10/21 04:00:25;;;;;;;8.73;1.25;;;;;;;;;;4909724;29;20803;-78
2023/10/21 04:02:50;;;;;;;7.63;1.60;;;;;;;;;;4902245;29;20106;-78
2023/10/21 04:05:17;;;;;;;7.60;1.30;;;;;;;;;;4907364;29;20032;-78
2023/10/21 04:07:45;;;;;;;11.52;1.40;;;;;;;;;;4907708;29;20059;-77
2023/10/21 04:10:11;;;;;;;8.95;1.50;;;;;;;;;;4910530;29;20038;-78
2023/10/21 04:12:37;;;;;;;8.45;1.10;;;;;;;;;;4912343;29;20028;-76
2023/10/21 04:15:03;;;;;;;8.95;1.58;;;;;;;;;;4916160;29;20044;-78
2023/10/21 04:17:29;;;;;;;4.00;1.42;;;;;;;;;;4909321;29;20440;-76
2023/10/21 04:19:54;;;;;;;6.43;1.20;;;;;;;;;;4905429;29;20683;-79
2023/10/21 04:22:19;;;;;;;9.98;1.45;;;;;;;;;;4906786;29;20103;-76
2023/10/21 04:24:45;;;;;;;6.75;1.50;;;;;;;;;;4910849;29;20039;-77
2023/10/21 04:27:10;;;;;;;7.82;1.42;;;;;;;;;;4914790;29;20113;-77
2023/10/21 04:29:35;;;;;;;7.65;1.40;;;;;;;;;;4902549;29;20039;-76
2023/10/21 04:32:01;;;;;;;7.95;1.20;;;;;;;;;;4906864;29;20044;-78
2023/10/21 04:34:27;;;;;;;9.80;1.70;;;;;;;;;;4909264;29;20468;-78
2023/10/21 04:36:52;;;;;;;8.90;1.52;;;;;;;;;;4911601;29;20028;-78
2023/10/21 04:39:17;;;;;;;6.80;1.50;;;;;;;;;;4909778;29;20376;-77
2023/10/21 04:41:43;;;;;;;4.93;1.15;;;;;;;;;;4905776;29;20159;-77
2023/10/21 04:44:09;;;;;;;10.02;1.50;;;;;;;;;;4911486;29;20167;-77
2023/10/21 04:46:35;;;;;;;6.50;1.35;;;;;;;;;;4909166;29;20031;-78
2023/10/21 04:49:00;;;;;;;9.65;1.40;;;;;;;;;;4910632;29;20024;-78
2023/10/21 04:51:25;;;;;;;6.18;1.58;;;;;;;;;;4918122;29;20035;-76
2023/10/21 04:53:51;;;;;;;7.65;1.45;;;;;;;;;;4909120;29;20089;-77
2023/10/21 04:56:17;;;;;;;5.38;1.20;;;;;;;;;;4915551;29;20043;-79
2023/10/21 04:58:42;;;;;;;6.93;1.50;;;;;;;;;;4902676;29;20637;-77
2023/10/21 05:01:10;;;;;;;7.43;1.42;;;;;;;;;;4909683;29;20035;-78
2023/10/21 05:03:36;;;;;;;11.13;1.60;;;;;;;;;;4900806;29;20119;-77
2023/10/21 05:06:01;;;;;;;10.48;1.50;;;;;;;;;;4916466;29;20216;-78
2023/10/21 05:08:26;;;;;;;10.18;1.60;;;;;;;;;;4927885;29;20039;-77
2023/10/21 05:10:52;;;;;;;8.27;2.20;;;;;;;;;;4930680;29;20547;-78
2023/10/21 05:13:17;;;;;;;8.95;1.70;;;;;;;;;;4930274;29;20698;-77
2023/10/21 05:15:43;;;;;;;10.50;1.70;;;;;;;;;;4920031;29;20189;-77
2023/10/21 05:18:09;;;;;;;8.90;1.73;;;;;;;;;;4925394;29;20036;-77
2023/10/21 05:20:34;;;;;;;10.35;1.83;;;;;;;;;;4925262;29;20114;-77
2023/10/21 05:23:00;;;;;;;10.27;1.80;;;;;;;;;;4921162;29;20032;-77
2023/10/21 05:25:25;;;;;;;14.25;2.10;;;;;;;;;;4927966;29;20066;-78
2023/10/21 05:27:51;;;;;;;6.93;1.67;;;;;;;;;;4928249;29;20055;-78
2023/10/21 05:30:17;;;;;;;12.15;2.28;;;;;;;;;;4915720;29;21146;-76
2023/10/21 05:32:43;;;;;;;6.88;1.60;;;;;;;;;;4903822;29;20059;-78
2023/10/21 05:35:08;;;;;;;13.75;2.60;;;;;;;;;;4916877;29;20476;-77
2023/10/21 05:37:35;;;;;;;11.95;2.05;;;;;;;;;;4910226;29;20121;-77
2023/10/21 05:40:04;;;;;;;10.23;1.85;;;;;;;;;;4913391;29;20094;-77
2023/10/21 05:42:30;;;;;;;10.30;2.20;;;;;;;;;;4918940;29;20093;-77
2023/10/21 05:44:55;;;;;;;7.53;1.60;;;;;;;;;;4910054;29;20098;-77
2023/10/21 05:47:20;;;;;;;13.18;1.80;;;;;;;;;;4907644;29;20043;-77
2023/10/21 05:49:46;;;;;;;12.20;1.90;;;;;;;;;;4887696;29;20067;-77
2023/10/21 05:52:11;;;;;;;12.95;1.88;;;;;;;;;;4904828;29;20124;-79
2023/10/21 05:54:36;;;;;;;13.32;1.98;;;;;;;;;;4914431;29;20118;-76
2023/10/21 05:57:02;;;;;;;18.35;2.35;;;;;;;;;;4912767;29;20256;-78
2023/10/21 05:59:28;;;;;;;8.65;1.90;;;;;;;;;;4911229;29;20465;-78
2023/10/21 06:01:53;;;;;;;10.20;1.90;;;;;;;;;;4908362;29;20034;-78
2023/10/21 06:04:18;;;;;;;9.23;2.05;;;;;;;;;;4899815;29;20393;-77
2023/10/21 06:06:44;;;;;;;12.05;1.90;;;;;;;;;;4905756;29;20038;-76
2023/10/21 06:09:09;;;;;;;13.07;1.80;;;;;;;;;;4906162;29;20115;-81
2023/10/21 06:11:35;;;;;;;10.88;1.75;;;;;;;;;;4912995;29;20405;-78
2023/10/21 06:14:01;;;;;;;10.10;1.65;;;;;;;;;;4907027;29;20296;-81
2023/10/21 06:16:26;;;;;;;16.30;1.73;;;;;;;;;;4918458;29;20437;-80
2023/10/21 06:18:53;;;;;;;13.07;2.33;;;;;;;;;;4915545;29;20685;-77
2023/10/21 06:21:18;;;;;;;14.65;2.17;;;;;;;;;;4909087;29;20032;-77
2023/10/21 06:23:44;;;;;;;15.10;2.10;;;;;;;;;;4913390;29;20040;-77
2023/10/21 06:26:11;;;;;;;12.25;2.13;;;;;;;;;;4911743;29;20032;-77
2023/10/21 06:28:38;;;;;;;9.32;2.00;;;;;;;;;;4903774;29;20086;-75
2023/10/21 06:31:04;;;;;;;10.38;2.15;;;;;;;;;;4921315;29;20044;-77
2023/10/21 06:33:29;;;;;;;14.23;2.38;;;;;;;;;;4920908;29;20443;-81
2023/10/21 06:35:55;;;;;;;15.20;2.45;;;;;;;;;;4919718;29;20476;-79
2023/10/21 06:38:20;;;;;;;16.02;2.17;;;;;;;;;;4923949;29;20027;-79
2023/10/21 06:40:45;;;;;;;10.18;1.77;;;;;;;;;;4899191;29;20087;-82
2023/10/21 06:43:11;;;;;;;7.00;1.52;;;;;;;;;;4922363;29;20027;-78
2023/10/21 06:45:38;;;;;;;12.75;1.92;;;;;;;;;;4924163;29;20035;-80
2023/10/21 06:48:04;;;;;;;9.32;1.98;;;;;;;;;;4920230;29;20354;-79
2023/10/21 06:50:30;;;;;;;8.93;2.20;;;;;;;;;;4921634;29;20041;-80
2023/10/21 06:52:56;;;;;;;12.27;1.88;;;;;;;;;;4915753;29;20028;-77
2023/10/21 06:55:22;;;;;;;12.50;1.63;;;;;;;;;;4919151;29;20039;-78
2023/10/21 06:57:47;;;;;;;7.03;1.60;;;;;;;;;;4907049;29;20036;-77
2023/10/21 07:00:13;;;;;;;12.93;2.15;;;;;;;;;;4914490;29;20024;-77
2023/10/21 07:02:39;;;;;;;11.20;2.00;;;;;;;;;;4923433;29;20094;-78
2023/10/21 07:05:09;;;;;;;12.52;2.17;;;;;;;;;;4920029;29;20034;-78
2023/10/21 07:07:37;;;;;;;11.77;1.98;;;;;;;;;;4913641;29;20040;-81
2023/10/21 07:10:03;;;;;;;9.57;1.88;;;;;;;;;;4918053;29;20131;-79
2023/10/21 07:12:28;;;;;;;11.60;2.28;;;;;;;;;;4925555;29;20079;-85
2023/10/21 07:14:54;;;;;;;12.50;2.05;;;;;;;;;;4917768;29;20031;-83
2023/10/21 07:17:19;;;;;;;10.45;2.08;;;;;;;;;;4920921;29;20058;-80
2023/10/21 07:19:45;;;;;;;14.25;2.17;;;;;;;;;;4916262;29;20655;-80
2023/10/21 07:22:10;;;;;;;16.23;1.90;;;;;;;;;;4923586;29;20046;-80
2023/10/21 07:24:36;;;;;;;11.57;1.73;;;;;;;;;;4918274;29;20344;-77
2023/10/21 07:27:01;;;;;;;10.95;2.00;;;;;;;;;;4903678;29;20447;-80
2023/10/21 07:29:27;;;;;;;16.48;2.10;;;;;;;;;;4922510;29;20028;-81
2023/10/21 07:31:52;;;;;;;11.45;1.77;;;;;;;;;;4877372;29;1088905;-81
2023/10/21 07:34:18;;;;;;;9.73;1.92;;;;;;;;;;4921258;29;20493;-82
2023/10/21 07:36:43;;;;;;;12.63;2.33;;;;;;;;;;4916954;29;20039;-81
2023/10/21 07:39:08;;;;;;;11.90;1.70;;;;;;;;;;4916568;29;20682;-81
2023/10/21 07:41:34;;;;;;;10.32;1.88;;;;;;;;;;4910150;29;20894;-83
2023/10/21 07:44:00;;;;;;;12.85;1.98;;;;;;;;;;4913598;29;20039;-82
2023/10/21 07:46:25;;;;;;;13.27;1.95;;;;;;;;;;4916612;29;20035;-83
2023/10/21 07:48:51;;;;;;;13.52;2.20;;;;;;;;;;4913236;29;20029;-84
2023/10/21 07:51:18;;;;;;;11.43;2.05;;;;;;;;;;4901818;29;20027;-81
2023/10/21 07:53:43;;;;;;;11.85;1.88;;;;;;;;;;4912587;29;20540;-82
2023/10/21 07:56:09;;;;;;;13.02;1.80;;;;;;;;;;4913507;29;20118;-81
2023/10/21 07:58:35;;;;;;;16.10;2.40;;;;;;;;;;4899703;29;20040;-82
2023/10/21 08:01:01;;;;;;;12.75;1.65;;;;;;;;;;4916996;29;20024;-82
2023/10/21 08:03:26;;;;;;;9.90;1.83;;;;;;;;;;4908281;29;20047;-82
2023/10/21 08:05:52;;;;;;;12.50;2.35;;;;;;;;;;4915522;29;20452;-83
2023/10/21 08:08:17;;;;;;;13.10;1.88;;;;;;;;;;4894762;29;20437;-83
2023/10/21 08:10:44;;;;;;;17.73;2.25;;;;;;;;;;4905380;29;20770;-85
2023/10/21 08:13:09;;;;;;;12.02;1.80;;;;;;;;;;4909820;29;20034;-84
2023/10/21 08:15:34;;;;;;;17.27;2.42;;;;;;;;;;4911997;29;20534;-82
2023/10/21 08:18:00;;;;;;;10.27;1.85;;;;;;;;;;4907372;29;20039;-90
2023/10/21 08:20:26;;;;;;;16.95;2.30;;;;;;;;;;4910537;29;20403;-84
2023/10/21 08:22:51;;;;;;;10.80;2.20;;;;;;;;;;4895168;29;20035;-89
2023/10/21 08:25:18;;;;;;;14.00;2.03;;;;;;;;;;4907273;29;20102;-83
2023/10/21 08:27:43;;;;;;;11.02;2.00;;;;;;;;;;4898401;29;20028;-83
2023/10/21 08:30:10;;;;;;;11.48;1.88;;;;;;;;;;4914946;29;20030;-81
2023/10/21 08:32:36;;;;;;;11.68;1.83;;;;;;;;;;4905373;29;20044;-81
2023/10/21 08:35:01;;;;;;;14.68;3.00;;;;;;;;;;4907856;29;20071;-82
2023/10/21 08:37:27;;;;;;;12.32;2.10;;;;;;;;;;4903834;29;20023;-80
2023/10/21 08:39:52;;;;;;;9.02;2.00;;;;;;;;;;4903504;29;20171;-76
2023/10/21 08:42:18;;;;;;;8.88;2.00;;;;;;;;;;4909790;29;20052;-79
2023/10/21 08:44:45;;;;;;;10.48;1.90;;;;;;;;;;4900467;29;20148;-79
2023/10/21 08:47:13;;;;;;;10.93;1.80;;;;;;;;;;4907790;29;20044;-78
2023/10/21 08:49:41;;;;;;;12.93;2.53;;;;;;;;;;4908374;29;20050;-78
2023/10/21 08:52:10;;;;;;;11.43;2.28;;;;;;;;;;4904496;29;20055;-83
2023/10/21 08:54:37;;;;;;;9.10;1.90;;;;;;;;;;4905586;29;20028;-77
2023/10/21 08:57:03;;;;;;;12.30;2.33;;;;;;;;;;4909473;29;20038;-77
2023/10/21 08:59:29;;;;;;;11.68;2.13;;;;;;;;;;4914316;29;20032;-79
2023/10/21 09:02:00;;;;;;;9.65;1.80;;;;;;;;;;4908257;29;20049;-82
2023/10/21 09:04:26;;;;;;;10.30;1.80;;;;;;;;;;4910761;29;20020;-76
2023/10/21 09:06:57;;;;;;;7.57;1.70;;;;;;;;;;4907779;29;20099;-79
2023/10/21 09:09:26;;;;;;;10.50;2.05;;;;;;;;;;4906550;29;20537;-76
2023/10/21 09:12:15;;;;;;;11.50;2.17;;;;;;;;;;4906773;29;20024;-80
2023/10/21 09:14:59;;;;;;;10.23;1.90;;;;;;;;;;4911263;29;20026;-79
2023/10/21 09:17:40;;;;;;;11.43;1.75;;;;;;;;;;4904398;29;20035;-79
2023/10/21 09:20:09;;;;;;;14.48;1.77;;;;;;;;;;4909401;29;20734;-78
2023/10/21 09:22:39;;;;;;;10.82;1.80;;;;;;;;;;4909969;29;20031;-82
2023/10/21 09:25:23;;;;;;;11.23;1.95;;;;;;;;;;4907286;29;20098;-78
2023/10/21 09:27:55;;;;;;;9.52;1.75;;;;;;;;;;4898939;29;20027;-77
2023/10/21 09:30:23;;;;;;;9.55;1.90;;;;;;;;;;4883610;29;20130;-76
2023/10/21 09:32:52;;;;;;;10.88;1.98;;;;;;;;;;4905077;29;20812;-78
2023/10/21 09:35:21;;;;;;;9.25;1.90;;;;;;;;;;4917165;29;20409;-77
2023/10/21 09:37:50;;;;;;;11.82;1.85;;;;;;;;;;4917753;29;20035;-80
2023/10/21 09:40:17;;;;;;;8.93;1.67;;;;;;;;;;4918772;29;20449;-76
2023/10/21 09:42:42;;;;;;;10.75;1.95;;;;;;;;;;4921782;29;20028;-76
2023/10/21 09:45:12;;;;;;;11.70;1.88;;;;;;;;;;4923764;29;20733;-74
2023/10/21 09:47:42;;;;;;;10.30;1.80;;;;;;;;;;4903979;29;20090;-74
2023/10/21 09:50:12;;;;;;;9.20;2.50;;;;;;;;;;4917149;29;20043;-77
2023/10/21 09:53:10;;;;;;;9.32;1.67;;;;;;;;;;4914493;29;20160;-76
2023/10/21 09:55:36;;;;;;;10.55;1.70;;;;;;;;;;4906593;29;20074;-75
2023/10/21 09:58:04;;;;;;;8.75;1.73;;;;;;;;;;4896140;29;20091;-74
2023/10/21 10:00:29;;;;;;;9.60;2.10;;;;;;;;;;4905298;29;20070;-76
2023/10/21 10:02:55;;;;;;;12.75;2.40;;;;;;;;;;4912684;29;20031;-75
2023/10/21 10:05:22;;;;;;;9.75;2.08;;;;;;;;;;4918296;29;20026;-77
2023/10/21 10:07:48;;;;;;;7.15;1.83;;;;;;;;;;4899916;29;20307;-77
2023/10/21 10:10:17;;;;;;;11.77;2.00;;;;;;;;;;4918915;29;20383;-81
2023/10/21 10:12:49;;;;;;;12.80;1.92;;;;;;;;;;4894042;29;20062;-77
2023/10/21 10:15:33;;;;;;;10.23;1.83;;;;;;;;;;4912064;29;20034;-77
2023/10/21 10:18:19;;;;;;;10.30;1.90;;;;;;;;;;4906588;29;20031;-76
2023/10/21 10:20:52;;;;;;;;;;;;;;;;;;4909880;29;20027;-77
2023/10/21 10:23:24;;;;;;;17.15;2.28;;;;;;;;;;4914041;29;20534;-78
2023/10/21 10:25:51;;;;;;;8.50;1.70;;;;;;;;;;4909465;29;20201;-78
2023/10/21 10:28:25;;;;;;;10.13;2.45;;;;;;;;;;4912886;29;20051;-79
2023/10/21 10:30:53;;;;;;;9.77;2.00;;;;;;;;;;4909183;29;20039;-78
2023/10/21 10:33:28;;;;;;;11.80;2.28;;;;;;;;;;4890660;29;20039;-79
2023/10/21 10:35:55;;;;;;;11.52;2.03;;;;;;;;;;4913422;29;20067;-78
2023/10/21 10:38:24;;;;;;;9.75;2.00;;;;;;;;;;4909328;29;20032;-78
2023/10/21 10:40:51;;;;;;;10.65;1.98;;;;;;;;;;4905074;29;20149;-81
2023/10/21 10:43:18;;;;;;;11.73;2.53;;;;;;;;;;4910852;29;20470;-81
2023/10/21 10:45:43;;;;;;;7.38;1.90;;;;;;;;;;4914746;29;20024;-77
2023/10/21 10:48:09;;;;;;;7.03;1.40;;;;;;;;;;4915116;29;20071;-78
2023/10/21 10:50:38;;;;;;;7.55;1.80;;;;;;;;;;4911409;29;20059;-75
2023/10/21 10:53:17;;;;;;;9.77;1.85;;;;;;;;;;4912133;29;20034;-77
2023/10/21 10:55:46;;;;;;;12.55;2.03;;;;;;;;;;4903550;29;20751;-76
2023/10/21 10:58:11;;;;;;;7.13;1.52;;;;;;;;;;4909377;29;20020;-76
2023/10/21 11:00:41;;;;;;;7.07;1.55;;;;;;;;;;4903914;29;20047;-76
2023/10/21 11:03:07;;;;;;;7.13;1.63;;;;;;;;;;4914551;29;20683;-78
2023/10/21 11:05:33;;;;;;;8.02;1.65;;;;;;;;;;4912319;29;20107;-74
2023/10/21 11:07:59;;;;;;;9.35;1.67;;;;;;;;;;4913692;29;20118;-80
2023/10/21 11:10:25;;;;;;;8.75;1.88;;;;;;;;;;4911757;29;20042;-81
2023/10/21 11:12:52;;;;;;;8.05;1.50;;;;;;;;;;4911447;29;20038;-81
2023/10/21 11:15:21;;;;;;;7.63;1.50;;;;;;;;;;4908491;29;20187;-83
2023/10/21 11:17:47;;;;;;;12.80;2.03;;;;;;;;;;4912009;29;20469;-80
2023/10/21 11:20:14;;;;;;;6.47;2.03;;;;;;;;;;4905982;29;20047;-82
2023/10/21 11:22:41;;;;;;;5.85;1.77;;;;;;;;;;4909138;29;20032;-77
2023/10/21 11:25:06;;;;;;;6.75;1.70;;;;;;;;;;4898619;29;20138;-80
2023/10/21 11:27:36;;;;;;;7.53;1.60;;;;;;;;;;4908650;29;20115;-88
2023/10/21 11:30:07;;;;;;;7.97;1.70;;;;;;;;;;4909824;29;20031;-81
2023/10/21 11:32:35;;;;;;;10.65;1.73;;;;;;;;;;4918009;29;20122;-78
2023/10/21 11:35:03;;;;;;;8.63;1.80;;;;;;;;;;4911039;29;20035;-80
2023/10/21 11:37:28;;;;;;;8.88;2.08;;;;;;;;;;4919738;29;20441;-78
2023/10/21 11:39:55;;;;;;;7.57;1.92;;;;;;;;;;4920016;29;20605;-79
2023/10/21 11:42:29;;;;;;;6.72;2.00;;;;;;;;;;4903774;29;20877;-81
2023/10/21 11:44:55;;;;;;;9.25;1.90;;;;;;;;;;4903400;29;20035;-79
2023/10/21 11:47:31;;;;;;;7.72;1.80;;;;;;;;;;4907134;29;20047;-82
2023/10/21 11:49:57;;;;;;;4.35;1.55;;;;;;;;;;4913205;29;20036;-79
2023/10/21 11:52:26;;;;;;;8.57;1.70;;;;;;;;;;4923996;29;20067;-83
2023/10/21 12:06:16;;;;;;;10.32;1.98;;;;;;;;;;4916150;29;20094;-78
2023/10/21 12:14:40;;;;;;;9.48;1.63;;;;;;;;;;4919519;29;20580;-77
2023/10/21 12:38:21;;;;;;;11.35;2.10;;;;;;;;;;4918340;29;20043;-86
2023/10/21 12:43:35;;;;;;;6.78;1.50;;;;;;;;;;4915459;29;20043;-78
2023/10/21 12:46:14;;;;;;;10.07;2.00;;;;;;;;;;4925829;29;20027;-78
2023/10/21 12:48:41;;;;;;;9.13;1.98;;;;;;;;;;4913500;29;20028;-76
2023/10/21 12:51:09;;;;;;;8.68;1.80;;;;;;;;;;4914330;29;20543;-84
2023/10/21 12:53:34;;;;;;;6.80;1.65;;;;;;;;;;4921241;29;21218;-75
2023/10/21 12:56:00;;;;;;;11.05;2.10;;;;;;;;;;4917321;29;20095;-80
2023/10/21 12:58:25;;;;;;;6.05;1.65;;;;;;;;;;4914537;29;20020;-76
2023/10/21 13:00:51;;;;;;;4.30;1.33;;;;;;;;;;4914734;29;20023;-79
2023/10/21 13:03:17;;;;;;;8.68;1.95;;;;;;;;;;4925049;29;20377;-79
2023/10/21 13:05:52;;;;;;;7.03;1.88;;;;;;;;;;4919008;29;20158;-75
2023/10/21 13:08:17;;;;;;;7.30;1.63;;;;;;;;;;4915125;29;20028;-78
2023/10/21 13:10:43;;;;;;;8.23;1.52;;;;;;;;;;4890391;29;20028;-77
2023/10/21 13:13:11;;;;;;;9.73;1.70;;;;;;;;;;4912083;29;20132;-77
2023/10/21 13:15:36;;;;;;;7.22;1.60;;;;;;;;;;4902351;29;20103;-77
2023/10/21 13:18:03;;;;;;;6.65;1.65;;;;;;;;;;4907963;29;20063;-80
2023/10/21 13:20:29;;;;;;;7.28;1.60;;;;;;;;;;4913729;29;20016;-78
2023/10/21 13:22:54;;;;;;;8.10;1.65;;;;;;;;;;4915577;29;20072;-78
2023/10/21 13:25:20;;;;;;;9.52;1.60;;;;;;;;;;4907677;29;20581;-78
2023/10/21 13:27:46;;;;;;;11.20;2.00;;;;;;;;;;4907237;29;20444;-78
2023/10/21 13:30:13;;;;;;;8.20;1.85;;;;;;;;;;4911369;29;20118;-78
2023/10/21 13:32:48;;;;;;;8.48;1.90;;;;;;;;;;4905505;29;20091;-76
2023/10/21 13:35:15;;;;;;;7.05;1.58;;;;;;;;;;4909002;29;20035;-78
2023/10/21 13:37:43;;;;;;;7.38;1.52;;;;;;;;;;4915962;29;20028;-76
2023/10/21 13:40:16;;;;;;;8.40;1.90;;;;;;;;;;4910884;29;20091;-76
2023/10/21 13:42:44;;;;;;;7.82;1.80;;;;;;;;;;4920407;29;20213;-78
2023/10/21 13:45:22;;;;;;;10.52;2.17;;;;;;;;;;4927657;29;20011;-78
2023/10/21 13:47:49;;;;;;;9.82;1.92;;;;;;;;;;4916964;29;20175;-77
2023/10/21 13:50:15;;;;;;;5.55;1.50;;;;;;;;;;4919555;29;20515;-77
2023/10/21 13:52:45;;;;;;;6.85;1.75;;;;;;;;;;4920824;29;20046;-77
2023/10/21 13:55:14;;;;;;;18.48;2.22;;;;;;;;;;4919491;29;20023;-77
2023/10/21 13:57:49;;;;;;;7.07;1.70;;;;;;;;;;4902016;29;20024;-76
2023/10/21 14:00:35;;;;;;;7.15;1.50;;;;;;;;;;4921676;29;20484;-78
2023/10/21 14:03:22;;;;;;;11.05;1.80;;;;;;;;;;4919495;29;20038;-75
2023/10/21 14:05:49;;;;;;;6.43;1.50;;;;;;;;;;4908690;29;20078;-72
2023/10/21 14:08:19;;;;;;;8.65;1.80;;;;;;;;;;4925065;29;20102;-76
2023/10/21 14:10:49;;;;;;;7.72;1.65;;;;;;;;;;4922533;29;20043;-78
2023/10/21 14:13:23;;;;;;;8.48;1.52;;;;;;;;;;4928471;29;20024;-76
2023/10/21 14:15:51;;;;;;;6.68;1.38;;;;;;;;;;4923042;29;20432;-74
2023/10/21 14:18:17;;;;;;;11.32;1.50;;;;;;;;;;4909449;29;20122;-77
2023/10/21 14:20:43;;;;;;;6.03;1.55;;;;;;;;;;4913319;29;20054;-76
2023/10/21 14:23:10;;;;;;;8.95;1.75;;;;;;;;;;4921098;29;20324;-76
2023/10/21 14:25:39;;;;;;;7.50;1.58;;;;;;;;;;4919159;29;20039;-77
2023/10/21 14:28:10;;;;;;;6.38;1.65;;;;;;;;;;4925081;29;20027;-75
2023/10/21 14:30:41;;;;;;;7.03;1.80;;;;;;;;;;4923728;29;20048;-76
2023/10/21 14:33:08;;;;;;;7.10;1.50;;;;;;;;;;4924555;29;20582;-76
2023/10/21 14:35:35;;;;;;;10.55;2.20;;;;;;;;;;4928262;29;20269;-76
2023/10/21 14:38:01;;;;;;;7.40;1.70;;;;;;;;;;4923693;29;20031;-78
2023/10/21 14:40:26;;;;;;;8.05;1.95;;;;;;;;;;4922971;29;20062;-76
2023/10/21 14:42:51;;;;;;;8.95;1.65;;;;;;;;;;4918690;29;20051;-75
2023/10/21 14:45:17;;;;;;;9.98;1.80;;;;;;;;;;4919420;29;20063;-76
2023/10/21 14:47:42;;;;;;;9.02;1.70;;;;;;;;;;4922831;29;20024;-76
2023/10/21 14:50:09;;;;;;;8.85;1.90;;;;;;;;;;4909159;29;20028;-79
2023/10/21 14:52:37;;;;;;;7.63;1.75;;;;;;;;;;4925259;29;20034;-75
2023/10/21 14:55:05;;;;;;;11.90;2.05;;;;;;;;;;4911936;29;20047;-76
2023/10/21 14:57:31;;;;;;;7.75;1.85;;;;;;;;;;4873315;29;20490;-77
2023/10/21 14:59:58;;;;;;;11.98;1.90;;;;;;;;;;4908752;29;20031;-77
2023/10/21 15:02:23;;;;;;;11.45;2.30;;;;;;;;;;4897840;29;20055;-75
2023/10/21 15:04:52;;;;;;;11.23;2.83;;;;;;;;;;4910008;29;20024;-74
2023/10/21 15:07:17;;;;;;;10.88;2.67;;;;;;;;;;4909578;29;20044;-76
2023/10/21 15:09:45;;;;;;;8.43;2.13;;;;;;;;;;4886353;29;20131;-77
2023/10/21 15:12:11;;;;;;;9.40;2.30;;;;;;;;;;4892129;29;20661;-78
2023/10/21 15:14:37;;;;;;;9.18;2.10;;;;;;;;;;4906279;29;20502;-79
2023/10/21 15:17:03;;;;;;;8.73;2.25;;;;;;;;;;4901944;29;20652;-78
2023/10/21 15:19:29;;;;;;;10.43;2.25;;;;;;;;;;4902103;29;20087;-79